createdAt,value
2022-11-12T00:04:46.149Z,12.59
2022-11-12T00:10:26.042Z,12.55
2022-11-12T00:16:05.874Z,12.49
2022-11-12T00:21:44.909Z,12.52
2022-11-12T00:27:24.421Z,12.58
2022-11-12T00:33:05.103Z,12.64
2022-11-12T00:38:44.255Z,12.67
2022-11-12T00:44:23.456Z,12.69
2022-11-12T00:50:02.927Z,12.72
2022-11-12T00:55:42.000Z,12.72
2022-11-12T01:01:21.760Z,12.68
2022-11-12T01:07:00.944Z,12.67
2022-11-12T01:12:40.643Z,12.69
2022-11-12T01:18:19.566Z,12.68
2022-11-12T01:24:00.888Z,12.69
2022-11-12T01:29:40.951Z,12.71
2022-11-12T01:35:20.308Z,12.75
2022-11-12T01:40:59.567Z,12.79
2022-11-12T01:46:49.923Z,12.79
2022-11-12T01:52:35.201Z,12.77
2022-11-12T01:58:18.367Z,12.73
2022-11-12T02:03:57.396Z,12.72
2022-11-12T02:09:36.868Z,12.71
2022-11-12T02:15:16.069Z,12.72
2022-11-12T02:20:58.039Z,12.75
2022-11-12T02:26:40.918Z,12.81
2022-11-12T02:32:20.197Z,12.84
2022-11-12T02:38:00.049Z,12.85
2022-11-12T02:43:40.728Z,12.84
2022-11-12T02:49:19.848Z,12.83
2022-11-12T02:54:59.189Z,12.83
2022-11-12T03:00:38.226Z,12.83
2022-11-12T03:06:17.835Z,12.81
2022-11-12T03:11:57.275Z,12.83
2022-11-12T03:17:36.340Z,12.84
2022-11-12T03:23:15.514Z,12.85
2022-11-12T03:28:55.045Z,12.88
2022-11-12T03:34:34.339Z,12.91
2022-11-12T03:40:13.458Z,12.90
2022-11-12T03:45:52.506Z,12.93
2022-11-12T03:51:31.769Z,12.94
2022-11-12T03:57:10.705Z,12.94
2022-11-12T04:02:50.119Z,12.93
2022-11-12T04:08:38.427Z,12.90
2022-11-12T04:14:17.737Z,12.79
2022-11-12T04:20:15.601Z,12.75
2022-11-12T04:26:13.613Z,12.71
2022-11-12T04:31:52.881Z,12.70
2022-11-12T04:37:44.451Z,12.70
2022-11-12T04:43:42.296Z,12.60
2022-11-12T04:49:21.698Z,12.56
2022-11-12T04:55:01.404Z,12.45
2022-11-12T05:00:40.715Z,12.43
2022-11-12T05:06:38.343Z,12.51
2022-11-12T05:12:17.862Z,12.57
2022-11-12T05:17:57.139Z,12.67
2022-11-12T05:23:35.976Z,12.70
2022-11-12T05:29:15.208Z,12.71
2022-11-12T05:34:54.569Z,12.70
2022-11-12T05:40:33.761Z,12.70
2022-11-12T05:46:13.116Z,12.69
2022-11-12T05:51:52.701Z,12.69
2022-11-12T05:57:32.073Z,12.69
2022-11-12T06:03:12.358Z,12.68
2022-11-12T06:08:51.754Z,12.70
2022-11-12T06:14:31.158Z,12.70
2022-11-12T06:20:11.216Z,12.75
2022-11-12T06:25:50.514Z,12.71
2022-11-12T06:31:29.752Z,12.65
2022-11-12T06:37:09.170Z,12.58
2022-11-12T06:42:48.393Z,12.49
2022-11-12T06:48:28.765Z,12.45
2022-11-12T06:54:08.311Z,12.47
2022-11-12T06:59:47.418Z,12.47
2022-11-12T07:05:26.512Z,12.47
2022-11-12T07:11:06.367Z,12.46
2022-11-12T07:16:45.754Z,12.43
2022-11-12T07:22:24.949Z,12.38
2022-11-12T07:28:04.701Z,12.46
2022-11-12T07:33:44.424Z,12.44
2022-11-12T07:39:23.896Z,12.40
2022-11-12T07:45:03.307Z,12.34
2022-11-12T07:50:42.571Z,12.33
2022-11-12T07:56:24.728Z,12.35
2022-11-12T08:02:04.156Z,12.38
2022-11-12T08:07:43.175Z,12.42
2022-11-12T08:13:22.228Z,12.59
2022-11-12T08:19:01.510Z,12.90
2022-11-12T08:24:40.649Z,13.05
2022-11-12T08:30:19.518Z,13.13
2022-11-12T08:36:02.057Z,13.23
2022-11-12T08:41:41.077Z,13.21
2022-11-12T08:47:20.046Z,13.23
2022-11-12T08:53:04.438Z,13.26
2022-11-12T08:58:43.745Z,13.31
2022-11-12T09:04:23.157Z,13.35
2022-11-12T09:10:02.755Z,13.38
2022-11-12T09:15:43.130Z,13.54
2022-11-12T09:21:24.673Z,13.65
2022-11-12T09:27:03.909Z,13.83
2022-11-12T09:32:43.424Z,13.93
2022-11-12T09:38:22.912Z,13.84
2022-11-12T09:44:04.930Z,13.92
2022-11-12T09:50:03.548Z,13.85
2022-11-12T09:55:46.648Z,13.70
2022-11-12T10:01:50.103Z,13.64
2022-11-12T10:07:38.323Z,13.61
2022-11-12T10:13:34.913Z,13.52
2022-11-12T10:19:37.085Z,13.43
2022-11-12T10:25:19.438Z,13.20
2022-11-12T10:31:06.122Z,13.04
2022-11-12T10:36:56.692Z,12.97
2022-11-12T10:42:59.312Z,13.00
2022-11-12T10:48:38.448Z,12.95
2022-11-12T10:54:30.078Z,12.84
2022-11-12T11:00:12.215Z,12.74
2022-11-12T11:06:00.417Z,12.71
2022-11-12T11:12:00.446Z,12.84
2022-11-12T11:17:39.757Z,12.87
2022-11-12T11:23:28.923Z,12.89
2022-11-12T11:29:30.641Z,12.90
2022-11-12T11:35:34.932Z,12.79
2022-11-12T11:41:30.847Z,12.76
2022-11-12T11:47:19.133Z,12.83
2022-11-12T11:53:26.710Z,12.75
2022-11-12T11:59:30.694Z,12.74
2022-11-12T12:05:27.755Z,12.70
2022-11-12T12:11:32.453Z,12.86
2022-11-12T12:17:31.848Z,12.88
2022-11-12T12:23:37.505Z,12.84
2022-11-12T12:29:34.575Z,12.66
2022-11-12T12:35:33.001Z,12.60
2022-11-12T12:41:30.670Z,12.49
2022-11-12T12:47:13.040Z,12.30
2022-11-12T12:53:16.546Z,12.12
2022-11-12T12:58:55.751Z,12.00
2022-11-12T13:04:55.192Z,11.95
2022-11-12T13:10:44.445Z,11.85
2022-11-12T13:16:52.135Z,11.87
2022-11-12T13:22:40.248Z,11.75
2022-11-12T13:28:19.745Z,11.71
2022-11-12T13:34:13.214Z,11.64
2022-11-12T13:39:52.468Z,11.62
2022-11-12T13:45:35.531Z,11.62
2022-11-12T13:51:27.275Z,11.67
2022-11-12T13:57:24.018Z,11.58
2022-11-12T14:03:06.301Z,11.47
2022-11-12T14:09:25.863Z,11.42
2022-11-12T14:15:23.663Z,11.31
2022-11-12T14:21:11.054Z,11.19
2022-11-12T14:26:50.801Z,11.11
2022-11-12T14:32:37.139Z,11.04
2022-11-12T14:38:48.613Z,11.10
2022-11-12T14:44:34.580Z,11.09
2022-11-12T14:50:20.847Z,11.09
2022-11-12T14:56:03.590Z,11.05
2022-11-12T15:08:08.088Z,10.88
2022-11-12T15:13:49.406Z,10.75
2022-11-12T15:19:29.644Z,10.67
2022-11-12T15:25:18.096Z,10.70
2022-11-12T15:31:06.040Z,10.71
2022-11-12T15:36:45.289Z,10.69
2022-11-12T15:42:33.820Z,10.71
2022-11-12T15:48:13.067Z,10.73
2022-11-12T15:53:52.744Z,10.67
2022-11-12T15:59:32.099Z,10.64
2022-11-12T16:05:18.533Z,10.62
2022-11-12T16:10:57.828Z,10.67
2022-11-12T16:16:39.594Z,10.63
2022-11-12T16:22:18.935Z,10.62
2022-11-12T16:28:00.892Z,10.56
2022-11-12T16:33:39.944Z,10.50
2022-11-12T16:39:18.892Z,10.51
2022-11-12T16:44:58.408Z,10.51
2022-11-12T16:50:37.815Z,10.47
2022-11-12T16:56:21.936Z,10.45
2022-11-12T17:02:01.150Z,10.43
2022-11-12T17:07:40.353Z,10.37
2022-11-12T17:13:19.617Z,10.30
2022-11-12T17:19:01.576Z,10.25
2022-11-12T17:24:40.682Z,10.10
2022-11-12T17:30:21.162Z,9.95
2022-11-12T17:36:05.009Z,9.81
2022-11-12T17:41:44.485Z,9.68
2022-11-12T17:47:23.928Z,9.58
2022-11-12T17:53:03.418Z,9.49
2022-11-12T17:58:45.303Z,9.45
2022-11-12T18:04:26.552Z,9.38
2022-11-12T18:10:08.083Z,9.35
2022-11-12T18:15:47.689Z,9.34
2022-11-12T18:21:27.561Z,9.34
2022-11-12T18:27:07.005Z,9.39
2022-11-12T18:32:46.586Z,9.38
2022-11-12T18:38:25.893Z,9.33
2022-11-12T18:44:05.257Z,9.26
2022-11-12T18:49:44.732Z,9.20
2022-11-12T18:55:24.069Z,9.10
2022-11-12T19:01:10.820Z,9.06
2022-11-12T19:06:51.881Z,9.06
2022-11-12T19:12:31.241Z,9.08
2022-11-12T19:18:10.701Z,9.16
2022-11-12T19:23:53.996Z,9.21
2022-11-12T19:29:33.855Z,9.23
2022-11-12T19:35:13.272Z,9.20
2022-11-12T19:40:52.465Z,9.13
2022-11-12T19:46:32.448Z,9.09
2022-11-12T19:52:12.126Z,9.11
2022-11-12T19:57:52.010Z,9.10
2022-11-12T20:03:31.250Z,9.07
2022-11-12T20:09:10.352Z,9.04
2022-11-12T20:14:49.673Z,8.98
2022-11-12T20:20:29.016Z,8.91
2022-11-12T20:26:12.167Z,8.88
2022-11-12T20:31:51.361Z,8.83
2022-11-12T20:37:30.691Z,8.78
2022-11-12T20:43:09.928Z,8.71
2022-11-12T20:48:49.313Z,8.64
2022-11-12T20:54:28.684Z,8.56
2022-11-12T21:00:13.522Z,8.48
2022-11-12T21:06:01.768Z,8.39
2022-11-12T21:11:41.090Z,8.31
2022-11-12T21:17:20.601Z,8.25
2022-11-12T21:22:59.711Z,8.22
2022-11-12T21:28:41.556Z,8.19
2022-11-12T21:34:20.703Z,8.16
2022-11-12T21:39:59.792Z,8.13
2022-11-12T21:45:44.839Z,8.17
2022-11-12T21:51:26.879Z,8.30
2022-11-12T21:57:06.571Z,8.40
2022-11-12T22:02:45.822Z,8.47
2022-11-12T22:08:25.608Z,8.53
2022-11-12T22:14:05.022Z,8.60
2022-11-12T22:19:44.053Z,8.68
2022-11-12T22:25:23.277Z,8.66
2022-11-12T22:31:05.157Z,8.65
2022-11-12T22:36:44.807Z,8.64
2022-11-12T22:42:23.851Z,8.70
2022-11-12T22:48:03.684Z,8.70
2022-11-12T22:53:43.450Z,8.74
2022-11-12T22:59:23.179Z,8.78
2022-11-12T23:05:03.435Z,8.79
2022-11-12T23:10:45.790Z,8.76
2022-11-12T23:16:30.010Z,8.69
2022-11-12T23:22:09.296Z,8.60
2022-11-12T23:27:48.374Z,8.50
2022-11-12T23:33:27.515Z,8.37
2022-11-12T23:39:06.844Z,8.26
2022-11-12T23:44:46.457Z,8.35
2022-11-12T23:50:25.761Z,8.36
2022-11-12T23:56:06.957Z,8.25
